sensor_id;sensor_type;location;lat;lon;timestamp;temperature;humidity
16114;DHT22;8161;-33.910;151.156;2022-08-25T00:02:03;16.30;99.90
16114;DHT22;8161;-33.910;151.156;2022-08-25T00:04:33;16.30;99.90
16114;DHT22;8161;-33.910;151.156;2022-08-25T00:07:02;16.60;99.90
16114;DHT22;8161;-33.910;151.156;2022-08-25T00:09:31;16.70;99.90
16114;DHT22;8161;-33.910;151.156;2022-08-25T00:11:59;16.80;99.90
16114;DHT22;8161;-33.910;151.156;2022-08-25T00:14:30;17.00;99.90
16114;DHT22;8161;-33.910;151.156;2022-08-25T00:16:59;17.00;99.90
16114;DHT22;8161;-33.910;151.156;2022-08-25T00:19:29;17.10;99.90
16114;DHT22;8161;-33.910;151.156;2022-08-25T00:21:58;17.10;99.90
16114;DHT22;8161;-33.910;151.156;2022-08-25T00:24:26;17.10;99.90
16114;DHT22;8161;-33.910;151.156;2022-08-25T00:26:56;17.10;99.90
16114;DHT22;8161;-33.910;151.156;2022-08-25T00:29:25;17.20;99.90
16114;DHT22;8161;-33.910;151.156;2022-08-25T00:31:55;17.40;99.90
16114;DHT22;8161;-33.910;151.156;2022-08-25T00:34:27;17.40;99.90
16114;DHT22;8161;-33.910;151.156;2022-08-25T00:36:55;17.50;99.90
16114;DHT22;8161;-33.910;151.156;2022-08-25T00:39:23;17.60;99.90
16114;DHT22;8161;-33.910;151.156;2022-08-25T00:41:53;17.60;99.90
16114;DHT22;8161;-33.910;151.156;2022-08-25T00:44:23;17.70;99.90
16114;DHT22;8161;-33.910;151.156;2022-08-25T00:46:53;18.00;99.90
16114;DHT22;8161;-33.910;151.156;2022-08-25T00:49:29;18.20;99.90
16114;DHT22;8161;-33.910;151.156;2022-08-25T00:52:18;18.30;99.90
16114;DHT22;8161;-33.910;151.156;2022-08-25T00:55:03;18.40;99.90
16114;DHT22;8161;-33.910;151.156;2022-08-25T00:57:47;18.60;99.90
16114;DHT22;8161;-33.910;151.156;2022-08-25T01:02:49;19.00;99.90
16114;DHT22;8161;-33.910;151.156;2022-08-25T01:05:17;19.20;99.90
16114;DHT22;8161;-33.910;151.156;2022-08-25T01:07:46;19.50;99.90
16114;DHT22;8161;-33.910;151.156;2022-08-25T01:10:17;19.80;99.90
16114;DHT22;8161;-33.910;151.156;2022-08-25T01:12:45;19.90;99.90
16114;DHT22;8161;-33.910;151.156;2022-08-25T01:15:13;20.00;99.90
16114;DHT22;8161;-33.910;151.156;2022-08-25T01:17:50;20.00;99.90
16114;DHT22;8161;-33.910;151.156;2022-08-25T01:20:20;20.20;99.90
16114;DHT22;8161;-33.910;151.156;2022-08-25T01:22:49;19.90;99.90
16114;DHT22;8161;-33.910;151.156;2022-08-25T01:27:50;20.30;99.90
16114;DHT22;8161;-33.910;151.156;2022-08-25T01:30:17;20.20;99.90
16114;DHT22;8161;-33.910;151.156;2022-08-25T01:32:45;20.20;99.90
16114;DHT22;8161;-33.910;151.156;2022-08-25T01:35:13;20.20;99.90
16114;DHT22;8161;-33.910;151.156;2022-08-25T01:37:41;20.30;99.90
16114;DHT22;8161;-33.910;151.156;2022-08-25T01:40:08;20.30;99.90
16114;DHT22;8161;-33.910;151.156;2022-08-25T01:43:06;20.40;99.90
16114;DHT22;8161;-33.910;151.156;2022-08-25T01:45:34;20.50;99.90
16114;DHT22;8161;-33.910;151.156;2022-08-25T01:48:02;20.60;99.90
16114;DHT22;8161;-33.910;151.156;2022-08-25T01:50:30;20.50;99.90
16114;DHT22;8161;-33.910;151.156;2022-08-25T01:53:11;20.50;99.90
16114;DHT22;8161;-33.910;151.156;2022-08-25T01:55:40;20.30;99.90
16114;DHT22;8161;-33.910;151.156;2022-08-25T01:58:36;20.30;99.90
16114;DHT22;8161;-33.910;151.156;2022-08-25T02:01:06;20.10;99.90
16114;DHT22;8161;-33.910;151.156;2022-08-25T02:03:38;19.90;99.90
16114;DHT22;8161;-33.910;151.156;2022-08-25T02:06:06;19.80;99.90
16114;DHT22;8161;-33.910;151.156;2022-08-25T02:08:33;19.60;99.90
16114;DHT22;8161;-33.910;151.156;2022-08-25T02:11:02;19.50;99.90
16114;DHT22;8161;-33.910;151.156;2022-08-25T02:13:30;19.40;99.90
16114;DHT22;8161;-33.910;151.156;2022-08-25T02:15:58;19.30;99.90
16114;DHT22;8161;-33.910;151.156;2022-08-25T02:18:27;19.20;99.90
16114;DHT22;8161;-33.910;151.156;2022-08-25T02:20:55;19.10;99.90
16114;DHT22;8161;-33.910;151.156;2022-08-25T02:23:22;18.90;99.90
16114;DHT22;8161;-33.910;151.156;2022-08-25T02:25:50;18.80;99.90
16114;DHT22;8161;-33.910;151.156;2022-08-25T02:28:17;18.70;99.90
16114;DHT22;8161;-33.910;151.156;2022-08-25T02:30:45;18.70;99.90
16114;DHT22;8161;-33.910;151.156;2022-08-25T02:33:13;18.60;99.90
16114;DHT22;8161;-33.910;151.156;2022-08-25T02:35:41;18.70;99.90
16114;DHT22;8161;-33.910;151.156;2022-08-25T02:38:08;18.80;99.90
16114;DHT22;8161;-33.910;151.156;2022-08-25T02:40:35;18.90;99.90
16114;DHT22;8161;-33.910;151.156;2022-08-25T02:43:03;19.00;99.90
16114;DHT22;8161;-33.910;151.156;2022-08-25T02:45:31;19.10;99.90
16114;DHT22;8161;-33.910;151.156;2022-08-25T02:47:58;19.20;99.90
16114;DHT22;8161;-33.910;151.156;2022-08-25T02:50:26;19.20;99.90
16114;DHT22;8161;-33.910;151.156;2022-08-25T02:52:53;19.20;99.90
16114;DHT22;8161;-33.910;151.156;2022-08-25T02:55:21;19.10;99.90
16114;DHT22;8161;-33.910;151.156;2022-08-25T02:57:49;19.00;99.90
16114;DHT22;8161;-33.910;151.156;2022-08-25T03:00:17;18.80;99.90
16114;DHT22;8161;-33.910;151.156;2022-08-25T03:02:45;18.70;99.90
16114;DHT22;8161;-33.910;151.156;2022-08-25T03:05:14;18.70;99.90
16114;DHT22;8161;-33.910;151.156;2022-08-25T03:07:42;18.60;99.90
16114;DHT22;8161;-33.910;151.156;2022-08-25T03:10:14;18.50;99.90
16114;DHT22;8161;-33.910;151.156;2022-08-25T03:12:42;18.40;99.90
16114;DHT22;8161;-33.910;151.156;2022-08-25T03:15:10;18.40;99.90
16114;DHT22;8161;-33.910;151.156;2022-08-25T03:17:38;18.40;99.90
16114;DHT22;8161;-33.910;151.156;2022-08-25T03:20:06;18.30;99.90
16114;DHT22;8161;-33.910;151.156;2022-08-25T03:22:34;18.20;99.90
16114;DHT22;8161;-33.910;151.156;2022-08-25T03:25:03;18.20;99.90
16114;DHT22;8161;-33.910;151.156;2022-08-25T03:27:48;18.10;99.90
16114;DHT22;8161;-33.910;151.156;2022-08-25T03:30:17;18.10;99.90
16114;DHT22;8161;-33.910;151.156;2022-08-25T03:32:45;18.00;99.90
16114;DHT22;8161;-33.910;151.156;2022-08-25T03:35:12;17.90;99.90
16114;DHT22;8161;-33.910;151.156;2022-08-25T03:37:40;17.90;99.90
16114;DHT22;8161;-33.910;151.156;2022-08-25T03:40:09;17.90;99.90
16114;DHT22;8161;-33.910;151.156;2022-08-25T03:42:41;17.90;99.90
16114;DHT22;8161;-33.910;151.156;2022-08-25T03:45:10;17.90;99.90
16114;DHT22;8161;-33.910;151.156;2022-08-25T03:47:39;17.90;99.90
16114;DHT22;8161;-33.910;151.156;2022-08-25T03:50:09;18.00;99.90
16114;DHT22;8161;-33.910;151.156;2022-08-25T03:52:37;18.10;99.90
16114;DHT22;8161;-33.910;151.156;2022-08-25T03:55:07;18.10;99.90
16114;DHT22;8161;-33.910;151.156;2022-08-25T03:57:35;18.20;99.90
16114;DHT22;8161;-33.910;151.156;2022-08-25T04:00:08;18.30;99.90
16114;DHT22;8161;-33.910;151.156;2022-08-25T04:02:38;18.30;99.90
16114;DHT22;8161;-33.910;151.156;2022-08-25T04:05:06;18.40;99.90
16114;DHT22;8161;-33.910;151.156;2022-08-25T04:07:34;18.40;99.90
16114;DHT22;8161;-33.910;151.156;2022-08-25T04:10:03;18.50;99.90
16114;DHT22;8161;-33.910;151.156;2022-08-25T04:12:30;18.50;99.90
16114;DHT22;8161;-33.910;151.156;2022-08-25T04:14:58;18.60;99.90
16114;DHT22;8161;-33.910;151.156;2022-08-25T04:17:25;18.60;99.90
16114;DHT22;8161;-33.910;151.156;2022-08-25T04:19:53;18.60;99.90
16114;DHT22;8161;-33.910;151.156;2022-08-25T04:22:20;18.60;99.90
16114;DHT22;8161;-33.910;151.156;2022-08-25T04:24:48;18.50;99.90
16114;DHT22;8161;-33.910;151.156;2022-08-25T04:27:15;18.40;99.90
16114;DHT22;8161;-33.910;151.156;2022-08-25T04:29:42;18.40;99.90
16114;DHT22;8161;-33.910;151.156;2022-08-25T04:32:10;18.30;99.90
16114;DHT22;8161;-33.910;151.156;2022-08-25T04:34:37;18.30;99.90
16114;DHT22;8161;-33.910;151.156;2022-08-25T04:37:08;18.30;99.90
16114;DHT22;8161;-33.910;151.156;2022-08-25T04:39:35;18.20;99.90
16114;DHT22;8161;-33.910;151.156;2022-08-25T04:42:03;18.20;99.90
16114;DHT22;8161;-33.910;151.156;2022-08-25T04:44:31;18.20;99.90
16114;DHT22;8161;-33.910;151.156;2022-08-25T04:46:59;18.10;99.90
16114;DHT22;8161;-33.910;151.156;2022-08-25T04:49:27;18.10;99.90
16114;DHT22;8161;-33.910;151.156;2022-08-25T04:51:54;18.10;99.90
16114;DHT22;8161;-33.910;151.156;2022-08-25T04:54:23;18.00;99.90
16114;DHT22;8161;-33.910;151.156;2022-08-25T04:56:52;18.00;99.90
16114;DHT22;8161;-33.910;151.156;2022-08-25T04:59:19;17.90;99.90
16114;DHT22;8161;-33.910;151.156;2022-08-25T05:01:46;17.90;99.90
16114;DHT22;8161;-33.910;151.156;2022-08-25T05:04:20;17.90;99.90
16114;DHT22;8161;-33.910;151.156;2022-08-25T05:06:48;17.80;99.90
16114;DHT22;8161;-33.910;151.156;2022-08-25T05:09:16;17.80;99.90
16114;DHT22;8161;-33.910;151.156;2022-08-25T05:11:44;17.70;99.90
16114;DHT22;8161;-33.910;151.156;2022-08-25T05:14:11;17.70;99.90
16114;DHT22;8161;-33.910;151.156;2022-08-25T05:16:40;17.70;99.90
16114;DHT22;8161;-33.910;151.156;2022-08-25T05:19:08;17.70;99.90
16114;DHT22;8161;-33.910;151.156;2022-08-25T05:21:35;17.70;99.90
16114;DHT22;8161;-33.910;151.156;2022-08-25T05:24:03;17.70;99.90
16114;DHT22;8161;-33.910;151.156;2022-08-25T05:26:32;17.70;99.90
16114;DHT22;8161;-33.910;151.156;2022-08-25T05:29:02;17.60;99.90
16114;DHT22;8161;-33.910;151.156;2022-08-25T05:31:31;17.60;99.90
16114;DHT22;8161;-33.910;151.156;2022-08-25T05:33:58;17.60;99.90
16114;DHT22;8161;-33.910;151.156;2022-08-25T05:36:27;17.60;99.90
16114;DHT22;8161;-33.910;151.156;2022-08-25T05:38:55;17.50;99.90
16114;DHT22;8161;-33.910;151.156;2022-08-25T05:41:27;17.50;99.90
16114;DHT22;8161;-33.910;151.156;2022-08-25T05:43:55;17.50;99.90
16114;DHT22;8161;-33.910;151.156;2022-08-25T05:46:23;17.40;99.90
16114;DHT22;8161;-33.910;151.156;2022-08-25T05:48:51;17.40;99.90
16114;DHT22;8161;-33.910;151.156;2022-08-25T05:51:18;17.40;99.90
16114;DHT22;8161;-33.910;151.156;2022-08-25T05:53:47;17.40;99.90
16114;DHT22;8161;-33.910;151.156;2022-08-25T05:56:15;17.40;99.90
16114;DHT22;8161;-33.910;151.156;2022-08-25T05:58:43;17.30;99.90
16114;DHT22;8161;-33.910;151.156;2022-08-25T06:01:27;17.30;99.90
16114;DHT22;8161;-33.910;151.156;2022-08-25T06:04:09;17.40;99.90
16114;DHT22;8161;-33.910;151.156;2022-08-25T06:06:37;17.40;99.90
16114;DHT22;8161;-33.910;151.156;2022-08-25T06:09:04;17.40;99.90
16114;DHT22;8161;-33.910;151.156;2022-08-25T06:11:35;17.40;99.90
16114;DHT22;8161;-33.910;151.156;2022-08-25T06:14:03;17.30;99.90
16114;DHT22;8161;-33.910;151.156;2022-08-25T06:16:30;17.30;99.90
16114;DHT22;8161;-33.910;151.156;2022-08-25T06:18:58;17.30;99.90
16114;DHT22;8161;-33.910;151.156;2022-08-25T06:21:26;17.30;99.90
16114;DHT22;8161;-33.910;151.156;2022-08-25T06:23:54;17.30;99.90
16114;DHT22;8161;-33.910;151.156;2022-08-25T06:26:22;17.30;99.90
16114;DHT22;8161;-33.910;151.156;2022-08-25T06:28:50;17.40;99.90
16114;DHT22;8161;-33.910;151.156;2022-08-25T06:31:18;17.40;99.90
16114;DHT22;8161;-33.910;151.156;2022-08-25T06:33:48;17.30;99.90
16114;DHT22;8161;-33.910;151.156;2022-08-25T06:36:16;17.30;99.90
16114;DHT22;8161;-33.910;151.156;2022-08-25T06:38:45;17.40;99.90
16114;DHT22;8161;-33.910;151.156;2022-08-25T06:41:13;17.30;99.90
16114;DHT22;8161;-33.910;151.156;2022-08-25T06:43:42;17.30;99.90
16114;DHT22;8161;-33.910;151.156;2022-08-25T06:46:11;17.30;99.90
16114;DHT22;8161;-33.910;151.156;2022-08-25T06:48:40;17.40;99.90
16114;DHT22;8161;-33.910;151.156;2022-08-25T06:51:09;17.30;99.90
16114;DHT22;8161;-33.910;151.156;2022-08-25T06:53:37;17.30;99.90
16114;DHT22;8161;-33.910;151.156;2022-08-25T06:56:05;17.30;99.90
16114;DHT22;8161;-33.910;151.156;2022-08-25T06:58:32;17.30;99.90
16114;DHT22;8161;-33.910;151.156;2022-08-25T07:03:35;17.30;99.90
16114;DHT22;8161;-33.910;151.156;2022-08-25T07:06:02;17.30;99.90
16114;DHT22;8161;-33.910;151.156;2022-08-25T07:08:30;17.20;99.90
16114;DHT22;8161;-33.910;151.156;2022-08-25T07:11:04;17.30;99.90
16114;DHT22;8161;-33.910;151.156;2022-08-25T07:13:31;17.20;99.90
16114;DHT22;8161;-33.910;151.156;2022-08-25T07:15:59;17.20;99.90
16114;DHT22;8161;-33.910;151.156;2022-08-25T07:18:26;17.10;99.90
16114;DHT22;8161;-33.910;151.156;2022-08-25T07:20:54;17.10;99.90
16114;DHT22;8161;-33.910;151.156;2022-08-25T07:23:23;17.10;99.90
16114;DHT22;8161;-33.910;151.156;2022-08-25T07:25:51;17.00;99.90
16114;DHT22;8161;-33.910;151.156;2022-08-25T07:28:19;17.00;99.90
16114;DHT22;8161;-33.910;151.156;2022-08-25T07:30:46;17.00;99.90
16114;DHT22;8161;-33.910;151.156;2022-08-25T07:33:15;16.90;99.90
16114;DHT22;8161;-33.910;151.156;2022-08-25T07:35:43;16.90;99.90
16114;DHT22;8161;-33.910;151.156;2022-08-25T07:38:10;16.90;99.90
16114;DHT22;8161;-33.910;151.156;2022-08-25T07:40:38;16.90;99.90
16114;DHT22;8161;-33.910;151.156;2022-08-25T07:43:06;16.80;99.90
16114;DHT22;8161;-33.910;151.156;2022-08-25T07:45:37;16.80;99.90
16114;DHT22;8161;-33.910;151.156;2022-08-25T07:48:10;16.70;99.90
16114;DHT22;8161;-33.910;151.156;2022-08-25T07:50:40;16.70;99.90
16114;DHT22;8161;-33.910;151.156;2022-08-25T07:53:10;16.60;99.90
16114;DHT22;8161;-33.910;151.156;2022-08-25T07:55:38;16.60;99.90
16114;DHT22;8161;-33.910;151.156;2022-08-25T07:58:08;16.50;99.90
16114;DHT22;8161;-33.910;151.156;2022-08-25T08:00:37;16.40;99.90
16114;DHT22;8161;-33.910;151.156;2022-08-25T08:03:06;16.40;99.90
16114;DHT22;8161;-33.910;151.156;2022-08-25T08:05:35;16.30;99.90
16114;DHT22;8161;-33.910;151.156;2022-08-25T08:08:03;16.30;99.90
16114;DHT22;8161;-33.910;151.156;2022-08-25T08:10:30;16.20;99.90
16114;DHT22;8161;-33.910;151.156;2022-08-25T08:12:58;16.10;99.90
16114;DHT22;8161;-33.910;151.156;2022-08-25T08:15:25;16.10;99.90
16114;DHT22;8161;-33.910;151.156;2022-08-25T08:17:53;16.00;99.90
16114;DHT22;8161;-33.910;151.156;2022-08-25T08:20:20;16.00;99.90
16114;DHT22;8161;-33.910;151.156;2022-08-25T08:22:47;15.90;99.90
16114;DHT22;8161;-33.910;151.156;2022-08-25T08:25:15;15.90;99.90
16114;DHT22;8161;-33.910;151.156;2022-08-25T08:27:43;15.80;99.90
16114;DHT22;8161;-33.910;151.156;2022-08-25T08:30:12;15.80;99.90
16114;DHT22;8161;-33.910;151.156;2022-08-25T08:32:39;15.80;99.90
16114;DHT22;8161;-33.910;151.156;2022-08-25T08:35:07;15.70;99.90
16114;DHT22;8161;-33.910;151.156;2022-08-25T08:37:35;15.70;99.90
16114;DHT22;8161;-33.910;151.156;2022-08-25T08:40:09;15.70;99.90
16114;DHT22;8161;-33.910;151.156;2022-08-25T08:42:57;15.60;99.90
16114;DHT22;8161;-33.910;151.156;2022-08-25T08:45:47;15.60;99.90
16114;DHT22;8161;-33.910;151.156;2022-08-25T08:51:14;15.50;99.90
16114;DHT22;8161;-33.910;151.156;2022-08-25T08:54:03;15.60;99.90
16114;DHT22;8161;-33.910;151.156;2022-08-25T08:56:43;15.60;99.90
16114;DHT22;8161;-33.910;151.156;2022-08-25T08:59:23;15.50;99.90
16114;DHT22;8161;-33.910;151.156;2022-08-25T09:02:02;15.50;99.90
16114;DHT22;8161;-33.910;151.156;2022-08-25T09:04:42;15.50;99.90
16114;DHT22;8161;-33.910;151.156;2022-08-25T09:07:16;15.50;99.90
16114;DHT22;8161;-33.910;151.156;2022-08-25T09:09:45;15.50;99.90
16114;DHT22;8161;-33.910;151.156;2022-08-25T09:12:14;15.60;99.90
16114;DHT22;8161;-33.910;151.156;2022-08-25T09:15:47;15.60;99.90
16114;DHT22;8161;-33.910;151.156;2022-08-25T09:20:47;15.60;99.90
16114;DHT22;8161;-33.910;151.156;2022-08-25T09:28:48;15.70;99.90
16114;DHT22;8161;-33.910;151.156;2022-08-25T09:31:23;15.70;99.90
16114;DHT22;8161;-33.910;151.156;2022-08-25T09:33:56;15.70;99.90
16114;DHT22;8161;-33.910;151.156;2022-08-25T09:36:26;15.70;99.90
16114;DHT22;8161;-33.910;151.156;2022-08-25T09:38:54;15.70;99.90
16114;DHT22;8161;-33.910;151.156;2022-08-25T09:44:29;15.70;99.90
16114;DHT22;8161;-33.910;151.156;2022-08-25T09:49:39;15.70;99.90
16114;DHT22;8161;-33.910;151.156;2022-08-25T10:00:32;15.50;99.90
16114;DHT22;8161;-33.910;151.156;2022-08-25T10:03:07;15.40;99.90
16114;DHT22;8161;-33.910;151.156;2022-08-25T10:08:32;15.30;99.90
16114;DHT22;8161;-33.910;151.156;2022-08-25T10:11:02;15.40;99.90
16114;DHT22;8161;-33.910;151.156;2022-08-25T10:13:40;15.40;99.90
16114;DHT22;8161;-33.910;151.156;2022-08-25T10:16:12;15.40;99.90
16114;DHT22;8161;-33.910;151.156;2022-08-25T10:21:31;15.40;99.90
16114;DHT22;8161;-33.910;151.156;2022-08-25T10:23:59;15.30;99.90
16114;DHT22;8161;-33.910;151.156;2022-08-25T10:26:40;15.20;99.90
16114;DHT22;8161;-33.910;151.156;2022-08-25T10:29:44;15.20;99.90
16114;DHT22;8161;-33.910;151.156;2022-08-25T10:35:30;15.00;99.90
16114;DHT22;8161;-33.910;151.156;2022-08-25T10:43:35;14.90;99.90
16114;DHT22;8161;-33.910;151.156;2022-08-25T10:46:26;14.80;99.90
16114;DHT22;8161;-33.910;151.156;2022-08-25T10:52:04;14.80;99.90
16114;DHT22;8161;-33.910;151.156;2022-08-25T10:54:59;14.80;99.90
16114;DHT22;8161;-33.910;151.156;2022-08-25T11:00:22;14.70;99.90
16114;DHT22;8161;-33.910;151.156;2022-08-25T11:05:50;14.60;99.90
16114;DHT22;8161;-33.910;151.156;2022-08-25T11:14:14;14.60;99.90
16114;DHT22;8161;-33.910;151.156;2022-08-25T11:16:38;14.60;99.90
16114;DHT22;8161;-33.910;151.156;2022-08-25T11:22:06;14.60;99.90
16114;DHT22;8161;-33.910;151.156;2022-08-25T11:27:21;14.50;99.90
16114;DHT22;8161;-33.910;151.156;2022-08-25T11:30:07;14.50;99.90
16114;DHT22;8161;-33.910;151.156;2022-08-25T11:32:39;14.50;99.90
16114;DHT22;8161;-33.910;151.156;2022-08-25T11:35:12;14.50;99.90
16114;DHT22;8161;-33.910;151.156;2022-08-25T11:40:47;14.40;99.90
16114;DHT22;8161;-33.910;151.156;2022-08-25T11:48:50;14.40;99.90
16114;DHT22;8161;-33.910;151.156;2022-08-25T11:51:39;14.40;99.90
16114;DHT22;8161;-33.910;151.156;2022-08-25T11:54:26;14.40;99.90
16114;DHT22;8161;-33.910;151.156;2022-08-25T11:57:02;14.50;99.90
16114;DHT22;8161;-33.910;151.156;2022-08-25T12:16:37;14.60;99.90
16114;DHT22;8161;-33.910;151.156;2022-08-25T12:35:28;14.40;99.90
16114;DHT22;8161;-33.910;151.156;2022-08-25T12:38:13;14.40;99.90
16114;DHT22;8161;-33.910;151.156;2022-08-25T12:43:33;14.30;99.90
16114;DHT22;8161;-33.910;151.156;2022-08-25T12:46:36;14.30;99.90
16114;DHT22;8161;-33.910;151.156;2022-08-25T12:52:05;14.20;99.90
16114;DHT22;8161;-33.910;151.156;2022-08-25T13:00:00;14.10;99.90
16114;DHT22;8161;-33.910;151.156;2022-08-25T13:10:31;14.00;99.90
16114;DHT22;8161;-33.910;151.156;2022-08-25T13:13:09;14.00;99.90
16114;DHT22;8161;-33.910;151.156;2022-08-25T13:15:44;14.00;99.90
16114;DHT22;8161;-33.910;151.156;2022-08-25T13:20:42;14.00;99.90
16114;DHT22;8161;-33.910;151.156;2022-08-25T13:23:09;14.00;99.90
16114;DHT22;8161;-33.910;151.156;2022-08-25T13:25:48;14.00;99.90
16114;DHT22;8161;-33.910;151.156;2022-08-25T13:28:42;14.00;99.90
16114;DHT22;8161;-33.910;151.156;2022-08-25T13:31:18;14.00;99.90
16114;DHT22;8161;-33.910;151.156;2022-08-25T13:33:56;14.00;99.90
16114;DHT22;8161;-33.910;151.156;2022-08-25T13:36:29;14.00;99.90
16114;DHT22;8161;-33.910;151.156;2022-08-25T13:39:16;14.00;99.90
16114;DHT22;8161;-33.910;151.156;2022-08-25T13:41:49;14.00;99.90
16114;DHT22;8161;-33.910;151.156;2022-08-25T13:44:18;14.00;99.90
16114;DHT22;8161;-33.910;151.156;2022-08-25T13:46:47;14.00;99.90
16114;DHT22;8161;-33.910;151.156;2022-08-25T13:49:30;14.00;99.90
16114;DHT22;8161;-33.910;151.156;2022-08-25T13:51:57;14.00;99.90
16114;DHT22;8161;-33.910;151.156;2022-08-25T13:54:33;14.00;99.90
16114;DHT22;8161;-33.910;151.156;2022-08-25T13:57:21;14.00;99.90
16114;DHT22;8161;-33.910;151.156;2022-08-25T13:59:53;14.00;99.90
16114;DHT22;8161;-33.910;151.156;2022-08-25T14:05:11;13.90;99.90
16114;DHT22;8161;-33.910;151.156;2022-08-25T14:07:39;13.90;99.90
16114;DHT22;8161;-33.910;151.156;2022-08-25T14:10:09;13.80;99.90
16114;DHT22;8161;-33.910;151.156;2022-08-25T14:17:59;13.80;99.90
16114;DHT22;8161;-33.910;151.156;2022-08-25T14:20:29;13.90;99.90
16114;DHT22;8161;-33.910;151.156;2022-08-25T14:23:04;13.90;99.90
16114;DHT22;8161;-33.910;151.156;2022-08-25T14:25:32;13.80;99.90
16114;DHT22;8161;-33.910;151.156;2022-08-25T14:28:02;13.80;99.90
16114;DHT22;8161;-33.910;151.156;2022-08-25T14:30:33;13.80;99.90
16114;DHT22;8161;-33.910;151.156;2022-08-25T14:33:02;13.80;99.90
16114;DHT22;8161;-33.910;151.156;2022-08-25T14:35:30;13.70;99.90
16114;DHT22;8161;-33.910;151.156;2022-08-25T14:38:07;13.70;99.90
16114;DHT22;8161;-33.910;151.156;2022-08-25T14:40:35;13.70;99.90
16114;DHT22;8161;-33.910;151.156;2022-08-25T14:43:03;13.80;99.90
16114;DHT22;8161;-33.910;151.156;2022-08-25T14:45:30;13.80;99.90
16114;DHT22;8161;-33.910;151.156;2022-08-25T14:48:04;13.70;99.90
16114;DHT22;8161;-33.910;151.156;2022-08-25T14:50:34;13.70;99.90
16114;DHT22;8161;-33.910;151.156;2022-08-25T14:53:02;13.70;99.90
16114;DHT22;8161;-33.910;151.156;2022-08-25T14:55:29;13.70;99.90
16114;DHT22;8161;-33.910;151.156;2022-08-25T14:57:57;13.60;99.90
16114;DHT22;8161;-33.910;151.156;2022-08-25T15:00:24;13.60;99.90
16114;DHT22;8161;-33.910;151.156;2022-08-25T15:02:51;13.60;99.90
16114;DHT22;8161;-33.910;151.156;2022-08-25T15:05:22;13.60;99.90
16114;DHT22;8161;-33.910;151.156;2022-08-25T15:07:53;13.50;99.90
16114;DHT22;8161;-33.910;151.156;2022-08-25T15:10:35;13.50;99.90
16114;DHT22;8161;-33.910;151.156;2022-08-25T15:13:02;13.50;99.90
16114;DHT22;8161;-33.910;151.156;2022-08-25T15:15:42;13.40;99.90
16114;DHT22;8161;-33.910;151.156;2022-08-25T15:18:10;13.40;99.90
16114;DHT22;8161;-33.910;151.156;2022-08-25T15:20:37;13.40;99.90
16114;DHT22;8161;-33.910;151.156;2022-08-25T15:23:05;13.40;99.90
16114;DHT22;8161;-33.910;151.156;2022-08-25T15:25:34;13.30;99.90
16114;DHT22;8161;-33.910;151.156;2022-08-25T15:28:05;13.30;99.90
16114;DHT22;8161;-33.910;151.156;2022-08-25T15:30:34;13.30;99.90
16114;DHT22;8161;-33.910;151.156;2022-08-25T15:33:02;13.20;99.90
16114;DHT22;8161;-33.910;151.156;2022-08-25T15:35:29;13.20;99.90
16114;DHT22;8161;-33.910;151.156;2022-08-25T15:37:56;13.20;99.90
16114;DHT22;8161;-33.910;151.156;2022-08-25T15:40:24;13.20;99.90
16114;DHT22;8161;-33.910;151.156;2022-08-25T15:42:52;13.10;99.90
16114;DHT22;8161;-33.910;151.156;2022-08-25T15:45:19;13.10;99.90
16114;DHT22;8161;-33.910;151.156;2022-08-25T15:47:46;13.10;99.90
16114;DHT22;8161;-33.910;151.156;2022-08-25T15:50:16;13.10;99.90
16114;DHT22;8161;-33.910;151.156;2022-08-25T15:52:45;13.00;99.90
16114;DHT22;8161;-33.910;151.156;2022-08-25T15:55:13;13.10;99.90
16114;DHT22;8161;-33.910;151.156;2022-08-25T15:57:42;13.00;99.90
16114;DHT22;8161;-33.910;151.156;2022-08-25T16:00:10;13.00;99.90
16114;DHT22;8161;-33.910;151.156;2022-08-25T16:02:38;13.00;99.90
16114;DHT22;8161;-33.910;151.156;2022-08-25T16:05:07;13.00;99.90
16114;DHT22;8161;-33.910;151.156;2022-08-25T16:07:36;12.90;99.90
16114;DHT22;8161;-33.910;151.156;2022-08-25T16:10:04;12.90;99.90
16114;DHT22;8161;-33.910;151.156;2022-08-25T16:12:32;12.90;99.90
16114;DHT22;8161;-33.910;151.156;2022-08-25T16:15:00;12.90;99.90
16114;DHT22;8161;-33.910;151.156;2022-08-25T16:17:27;12.80;99.90
16114;DHT22;8161;-33.910;151.156;2022-08-25T16:19:55;12.80;99.90
16114;DHT22;8161;-33.910;151.156;2022-08-25T16:22:22;12.70;99.90
16114;DHT22;8161;-33.910;151.156;2022-08-25T16:24:49;12.70;99.90
16114;DHT22;8161;-33.910;151.156;2022-08-25T16:27:17;12.70;99.90
16114;DHT22;8161;-33.910;151.156;2022-08-25T16:29:44;12.70;99.90
16114;DHT22;8161;-33.910;151.156;2022-08-25T16:32:13;12.70;99.90
16114;DHT22;8161;-33.910;151.156;2022-08-25T16:34:41;12.60;99.90
16114;DHT22;8161;-33.910;151.156;2022-08-25T16:37:09;12.60;99.90
16114;DHT22;8161;-33.910;151.156;2022-08-25T16:39:36;12.60;99.90
16114;DHT22;8161;-33.910;151.156;2022-08-25T16:42:09;12.60;99.90
16114;DHT22;8161;-33.910;151.156;2022-08-25T16:44:37;12.60;99.90
16114;DHT22;8161;-33.910;151.156;2022-08-25T16:47:05;12.60;99.90
16114;DHT22;8161;-33.910;151.156;2022-08-25T16:49:33;12.60;99.90
16114;DHT22;8161;-33.910;151.156;2022-08-25T16:52:00;12.60;99.90
16114;DHT22;8161;-33.910;151.156;2022-08-25T16:54:47;12.60;99.90
16114;DHT22;8161;-33.910;151.156;2022-08-25T16:57:28;12.60;99.90
16114;DHT22;8161;-33.910;151.156;2022-08-25T16:59:55;12.60;99.90
16114;DHT22;8161;-33.910;151.156;2022-08-25T17:02:22;12.60;99.90
16114;DHT22;8161;-33.910;151.156;2022-08-25T17:04:49;12.60;99.90
16114;DHT22;8161;-33.910;151.156;2022-08-25T17:07:17;12.60;99.90
16114;DHT22;8161;-33.910;151.156;2022-08-25T17:09:44;12.60;99.90
16114;DHT22;8161;-33.910;151.156;2022-08-25T17:12:11;12.60;99.90
16114;DHT22;8161;-33.910;151.156;2022-08-25T17:14:39;12.60;99.90
16114;DHT22;8161;-33.910;151.156;2022-08-25T17:17:07;12.60;99.90
16114;DHT22;8161;-33.910;151.156;2022-08-25T17:19:35;12.60;99.90
16114;DHT22;8161;-33.910;151.156;2022-08-25T17:22:06;12.50;99.90
16114;DHT22;8161;-33.910;151.156;2022-08-25T17:24:33;12.50;99.90
16114;DHT22;8161;-33.910;151.156;2022-08-25T17:27:01;12.50;99.90
16114;DHT22;8161;-33.910;151.156;2022-08-25T17:29:28;12.50;99.90
16114;DHT22;8161;-33.910;151.156;2022-08-25T17:31:56;12.50;99.90
16114;DHT22;8161;-33.910;151.156;2022-08-25T17:34:23;12.40;99.90
16114;DHT22;8161;-33.910;151.156;2022-08-25T17:36:51;12.50;99.90
16114;DHT22;8161;-33.910;151.156;2022-08-25T17:39:20;12.40;99.90
16114;DHT22;8161;-33.910;151.156;2022-08-25T17:41:48;12.40;99.90
16114;DHT22;8161;-33.910;151.156;2022-08-25T17:44:16;12.40;99.90